createdAt,value
2023-08-29T00:00:58.029Z,13.30
2023-08-29T00:01:58.077Z,13.27
2023-08-29T00:02:58.111Z,13.22
2023-08-29T00:03:58.048Z,13.27
2023-08-29T00:04:58.074Z,13.18
2023-08-29T00:05:57.990Z,13.25
2023-08-29T00:06:58.010Z,13.16
2023-08-29T00:07:58.001Z,13.19
2023-08-29T00:08:57.967Z,13.19
2023-08-29T00:09:57.969Z,13.03
2023-08-29T00:10:57.950Z,13.16
2023-08-29T00:11:57.966Z,13.12
2023-08-29T00:12:57.960Z,13.18
2023-08-29T00:13:57.931Z,13.22
2023-08-29T00:14:57.924Z,13.22
2023-08-29T00:15:57.920Z,13.23
2023-08-29T00:16:57.928Z,13.30
2023-08-29T00:17:57.982Z,13.27
2023-08-29T00:18:57.891Z,13.20
2023-08-29T00:19:57.884Z,13.25
2023-08-29T00:20:57.880Z,13.25
2023-08-29T00:21:57.906Z,13.30
2023-08-29T00:22:57.862Z,13.35
2023-08-29T00:23:57.884Z,13.30
2023-08-29T00:24:57.857Z,13.31
2023-08-29T00:25:57.840Z,13.33
2023-08-29T00:26:57.858Z,13.27
2023-08-29T00:27:57.836Z,13.19
2023-08-29T00:28:57.814Z,13.22
2023-08-29T00:29:57.804Z,13.25
2023-08-29T00:30:57.807Z,13.30
2023-08-29T00:31:57.862Z,13.28
2023-08-29T00:32:57.834Z,13.47
2023-08-29T00:33:57.773Z,13.37
2023-08-29T00:34:57.769Z,13.35
2023-08-29T00:35:57.761Z,13.33
2023-08-29T00:36:57.777Z,13.35
2023-08-29T00:37:57.750Z,13.38
2023-08-29T00:38:57.740Z,13.31
2023-08-29T00:39:57.732Z,13.31
2023-08-29T00:40:57.749Z,13.35
2023-08-29T00:41:57.739Z,13.41
2023-08-29T00:42:57.703Z,13.35
2023-08-29T00:43:57.701Z,13.27
2023-08-29T00:44:57.687Z,13.30
2023-08-29T00:45:57.768Z,13.31
2023-08-29T00:46:57.695Z,13.42
2023-08-29T00:47:57.737Z,13.39
2023-08-29T00:48:57.666Z,13.47
2023-08-29T00:49:57.651Z,13.33
2023-08-29T00:50:57.670Z,13.49
2023-08-29T00:51:57.632Z,13.44
2023-08-29T00:52:57.628Z,13.37
2023-08-29T00:53:57.619Z,13.35
2023-08-29T00:54:57.627Z,13.46
2023-08-29T00:55:57.632Z,13.38
2023-08-29T00:56:57.598Z,13.42
2023-08-29T00:57:57.624Z,13.28
2023-08-29T00:58:57.581Z,13.37
2023-08-29T00:59:57.595Z,13.30
2023-08-29T01:00:57.588Z,13.31
2023-08-29T01:01:57.553Z,13.31
2023-08-29T01:02:57.580Z,13.50
2023-08-29T01:03:57.598Z,13.37
2023-08-29T01:04:57.561Z,13.42
2023-08-29T01:05:57.528Z,13.41
2023-08-29T01:06:57.526Z,13.46
2023-08-29T01:07:57.512Z,13.39
2023-08-29T01:08:57.500Z,13.49
2023-08-29T01:09:57.520Z,13.46
2023-08-29T01:10:57.490Z,13.44
2023-08-29T01:11:57.478Z,13.31
2023-08-29T01:12:57.472Z,13.41
2023-08-29T01:13:57.493Z,13.37
2023-08-29T01:14:57.482Z,13.37
2023-08-29T01:15:57.469Z,13.33
2023-08-29T01:16:57.440Z,13.31
2023-08-29T01:17:57.490Z,13.31
2023-08-29T01:18:57.444Z,13.33
2023-08-29T01:19:57.422Z,13.35
2023-08-29T01:20:57.408Z,13.30
2023-08-29T01:21:57.391Z,13.37
2023-08-29T01:23:08.179Z,13.39
2023-08-29T01:23:59.407Z,13.37
2023-08-29T01:24:57.377Z,13.47
2023-08-29T01:25:57.364Z,13.41
2023-08-29T01:26:57.353Z,13.47
2023-08-29T01:27:57.345Z,13.53
2023-08-29T01:28:57.374Z,13.46
2023-08-29T01:29:57.348Z,13.50
2023-08-29T01:30:57.381Z,13.53
2023-08-29T01:31:57.317Z,13.47
2023-08-29T01:32:57.360Z,13.57
2023-08-29T01:33:57.333Z,13.47
2023-08-29T01:34:57.308Z,13.54
2023-08-29T01:35:57.285Z,13.57
2023-08-29T01:36:57.276Z,13.57
2023-08-29T01:37:57.292Z,13.54
2023-08-29T01:38:57.265Z,13.62
2023-08-29T01:39:57.266Z,13.52
2023-08-29T01:40:57.244Z,13.54
2023-08-29T01:41:57.240Z,13.60
2023-08-29T01:42:57.253Z,13.52
2023-08-29T01:43:57.219Z,13.53
2023-08-29T01:44:57.254Z,13.50
2023-08-29T01:45:57.274Z,13.44
2023-08-29T01:46:57.210Z,13.50
2023-08-29T01:47:57.241Z,13.50
2023-08-29T01:48:57.182Z,13.47
2023-08-29T01:49:57.176Z,13.49
2023-08-29T01:50:57.174Z,13.50
2023-08-29T01:51:57.186Z,13.46
2023-08-29T01:52:57.177Z,13.50
2023-08-29T01:53:57.153Z,13.44
2023-08-29T01:54:57.140Z,13.41
2023-08-29T01:55:57.124Z,13.44
2023-08-29T01:56:57.160Z,13.53
2023-08-29T01:57:57.121Z,13.42
2023-08-29T01:58:57.108Z,13.47
2023-08-29T01:59:57.096Z,13.47
2023-08-29T02:00:58.344Z,13.49
2023-08-29T02:01:57.121Z,13.52
2023-08-29T02:02:57.093Z,13.56
2023-08-29T02:03:57.066Z,13.56
2023-08-29T02:04:57.056Z,13.57
2023-08-29T02:05:57.052Z,13.46
2023-08-29T02:06:57.062Z,13.53
2023-08-29T02:07:57.047Z,13.60
2023-08-29T02:08:57.021Z,13.53
2023-08-29T02:09:57.013Z,13.56
2023-08-29T02:10:57.029Z,13.56
2023-08-29T02:11:57.021Z,13.50
2023-08-29T02:12:56.997Z,13.60
2023-08-29T02:13:56.983Z,13.60
2023-08-29T02:14:56.978Z,13.67
2023-08-29T02:15:56.998Z,13.71
2023-08-29T02:16:57.036Z,13.63
2023-08-29T02:17:56.985Z,13.70
2023-08-29T02:18:56.945Z,13.62
2023-08-29T02:19:56.935Z,13.65
2023-08-29T02:20:56.961Z,13.71
2023-08-29T02:21:56.919Z,13.60
2023-08-29T02:22:56.913Z,13.72
2023-08-29T02:23:56.898Z,13.68
2023-08-29T02:24:56.894Z,13.71
2023-08-29T02:25:56.918Z,13.71
2023-08-29T02:26:56.894Z,13.75
2023-08-29T02:27:56.867Z,13.67
2023-08-29T02:28:57.857Z,13.79
2023-08-29T02:29:56.879Z,13.70
2023-08-29T02:30:56.916Z,13.77
2023-08-29T02:31:56.840Z,13.81
2023-08-29T02:32:56.867Z,13.72
2023-08-29T02:33:56.845Z,13.79
2023-08-29T02:34:56.834Z,13.81
2023-08-29T02:35:56.802Z,13.81
2023-08-29T02:36:56.814Z,13.75
2023-08-29T02:37:56.791Z,13.92
2023-08-29T02:38:56.785Z,13.78
2023-08-29T02:39:56.799Z,13.78
2023-08-29T02:40:56.762Z,13.78
2023-08-29T02:41:56.760Z,13.74
2023-08-29T02:42:56.750Z,13.83
2023-08-29T02:43:56.740Z,13.83
2023-08-29T02:44:56.758Z,13.86
2023-08-29T02:45:56.725Z,13.83
2023-08-29T02:46:56.720Z,13.79
2023-08-29T02:47:56.769Z,13.86
2023-08-29T02:48:56.728Z,13.86
2023-08-29T02:49:56.725Z,13.75
2023-08-29T02:50:56.697Z,13.87
2023-08-29T02:51:56.682Z,13.85
2023-08-29T02:52:56.668Z,13.78
2023-08-29T02:53:56.688Z,13.87
2023-08-29T02:54:56.666Z,13.83
2023-08-29T02:55:56.644Z,13.93
2023-08-29T02:56:56.645Z,13.89
2023-08-29T02:57:56.634Z,13.93
2023-08-29T02:58:56.652Z,13.99
2023-08-29T02:59:56.617Z,13.87
2023-08-29T03:00:56.614Z,13.92
2023-08-29T03:01:56.598Z,13.89
2023-08-29T03:02:56.754Z,13.86
2023-08-29T03:03:56.721Z,13.83
2023-08-29T03:04:56.590Z,13.89
2023-08-29T03:05:56.570Z,13.96
2023-08-29T03:06:56.561Z,13.87
2023-08-29T03:07:56.625Z,13.90
2023-08-29T03:08:56.550Z,13.95
2023-08-29T03:09:56.551Z,13.83
2023-08-29T03:10:56.532Z,13.92
2023-08-29T03:11:56.526Z,13.89
2023-08-29T03:12:56.533Z,13.89
2023-08-29T03:13:56.503Z,13.93
2023-08-29T03:14:56.500Z,13.83
2023-08-29T03:15:56.503Z,13.96
2023-08-29T03:16:56.486Z,13.90
2023-08-29T03:17:56.540Z,13.79
2023-08-29T03:18:56.463Z,13.87
2023-08-29T03:19:56.464Z,13.81
2023-08-29T03:20:56.445Z,13.89
2023-08-29T03:21:56.462Z,13.79
2023-08-29T03:22:56.470Z,13.86
2023-08-29T03:23:56.427Z,13.87
2023-08-29T03:24:56.417Z,13.87
2023-08-29T03:25:56.409Z,13.85
2023-08-29T03:26:56.432Z,13.87
2023-08-29T03:27:56.393Z,13.79
2023-08-29T03:28:56.384Z,13.78
2023-08-29T03:29:56.389Z,13.83
2023-08-29T03:30:56.370Z,13.92
2023-08-29T03:31:56.399Z,13.75
2023-08-29T03:32:56.395Z,13.83
2023-08-29T03:33:56.349Z,13.81
2023-08-29T03:34:56.352Z,13.85
2023-08-29T03:35:56.358Z,13.74
2023-08-29T03:36:56.351Z,13.83
2023-08-29T03:37:56.316Z,13.78
2023-08-29T03:38:56.309Z,13.70
2023-08-29T03:39:56.311Z,13.74
2023-08-29T03:40:56.319Z,13.74
2023-08-29T03:41:56.289Z,13.70
2023-08-29T03:42:56.281Z,13.65
2023-08-29T03:43:56.278Z,13.74
2023-08-29T03:44:56.267Z,13.72
2023-08-29T03:45:56.303Z,13.70
2023-08-29T03:46:56.258Z,13.71
2023-08-29T03:47:56.271Z,13.72
2023-08-29T03:48:56.247Z,13.68
2023-08-29T03:49:56.230Z,13.75
2023-08-29T03:50:56.263Z,13.68
2023-08-29T03:51:56.222Z,13.65
2023-08-29T03:52:56.212Z,13.67
2023-08-29T03:53:56.203Z,13.68
2023-08-29T03:54:56.219Z,13.68
2023-08-29T03:55:56.210Z,13.71
2023-08-29T03:56:56.183Z,13.68
2023-08-29T03:57:56.174Z,13.68
2023-08-29T03:58:56.164Z,13.72
2023-08-29T03:59:56.189Z,13.74
2023-08-29T04:00:56.156Z,13.77
2023-08-29T04:01:56.141Z,13.78
2023-08-29T04:02:56.193Z,13.74
2023-08-29T04:03:56.253Z,13.77
2023-08-29T04:04:56.240Z,13.70
2023-08-29T04:05:56.129Z,13.78
2023-08-29T04:06:56.102Z,13.81
2023-08-29T04:07:56.088Z,13.72
2023-08-29T04:08:56.088Z,13.83
2023-08-29T04:09:56.111Z,13.86
2023-08-29T04:10:56.090Z,13.78
2023-08-29T04:11:56.071Z,13.83
2023-08-29T04:12:56.079Z,13.87
2023-08-29T04:13:56.089Z,13.83
2023-08-29T04:14:56.064Z,13.86
2023-08-29T04:15:56.042Z,13.78
2023-08-29T04:16:56.022Z,13.83
2023-08-29T04:17:56.072Z,13.90
2023-08-29T04:18:56.040Z,13.87
2023-08-29T04:19:56.007Z,13.90
2023-08-29T04:20:56.004Z,13.90
2023-08-29T04:21:55.985Z,13.89
2023-08-29T04:22:55.977Z,13.85
2023-08-29T04:23:55.995Z,13.81
2023-08-29T04:24:55.968Z,13.87
2023-08-29T04:25:55.947Z,13.89
2023-08-29T04:26:55.969Z,13.89
2023-08-29T04:27:55.944Z,13.90
2023-08-29T04:28:55.966Z,13.85
2023-08-29T04:29:55.940Z,13.90
2023-08-29T04:30:55.912Z,13.92
2023-08-29T04:31:56.915Z,13.99
2023-08-29T04:32:55.921Z,14.04
2023-08-29T04:33:55.911Z,14.00
2023-08-29T04:34:55.880Z,14.03
2023-08-29T04:35:55.876Z,14.03
2023-08-29T04:36:55.868Z,13.93
2023-08-29T04:37:55.972Z,14.00
2023-08-29T04:38:55.882Z,14.00
2023-08-29T04:39:55.850Z,14.04
2023-08-29T04:40:55.835Z,14.03
2023-08-29T04:41:55.838Z,14.00
2023-08-29T04:42:55.842Z,13.99
2023-08-29T04:43:55.819Z,14.00
2023-08-29T04:44:55.804Z,14.04
2023-08-29T04:45:55.824Z,14.00
2023-08-29T04:46:55.795Z,13.99
2023-08-29T04:47:55.872Z,14.07
2023-08-29T04:48:55.779Z,14.11
2023-08-29T04:49:55.766Z,14.07
2023-08-29T04:50:55.760Z,13.99
2023-08-29T04:51:55.755Z,14.05
2023-08-29T04:52:55.778Z,14.03
2023-08-29T04:53:55.730Z,14.07
2023-08-29T04:54:55.737Z,13.99
2023-08-29T04:55:55.723Z,14.05
2023-08-29T04:56:55.711Z,13.99
2023-08-29T04:57:55.746Z,13.99
2023-08-29T04:58:55.694Z,13.85
2023-08-29T04:59:55.680Z,14.05
2023-08-29T05:00:55.700Z,13.96
2023-08-29T05:01:55.694Z,13.92
2023-08-29T05:02:55.777Z,14.11
2023-08-29T05:03:55.660Z,14.03
2023-08-29T05:04:55.660Z,14.12
2023-08-29T05:05:55.640Z,14.17
2023-08-29T05:06:55.659Z,14.07
2023-08-29T05:07:55.624Z,14.11
2023-08-29T05:08:55.621Z,14.22
2023-08-29T05:09:55.671Z,14.18
2023-08-29T05:10:55.609Z,14.18
2023-08-29T05:11:55.612Z,14.28
2023-08-29T05:12:55.593Z,14.23
2023-08-29T05:13:55.578Z,14.25
2023-08-29T05:14:55.575Z,14.14
2023-08-29T05:15:55.625Z,14.11
2023-08-29T05:16:55.579Z,14.20
2023-08-29T05:17:55.797Z,14.08
2023-08-29T05:18:55.533Z,14.10
2023-08-29T05:19:55.543Z,14.03
2023-08-29T05:20:56.045Z,14.12
2023-08-29T05:21:56.515Z,14.12
2023-08-29T05:22:55.510Z,14.15
2023-08-29T05:23:55.535Z,14.14
2023-08-29T05:24:55.492Z,14.15
2023-08-29T05:25:55.510Z,14.22
2023-08-29T05:26:55.484Z,14.25
2023-08-29T05:27:55.481Z,14.28
2023-08-29T05:28:55.482Z,14.29
2023-08-29T05:29:55.457Z,14.29
2023-08-29T05:30:55.577Z,14.35
2023-08-29T05:31:55.437Z,14.32
2023-08-29T05:32:55.516Z,14.37
2023-08-29T05:33:55.429Z,14.43
2023-08-29T05:34:55.412Z,14.29
2023-08-29T05:35:55.442Z,14.35
2023-08-29T05:36:55.408Z,14.40
2023-08-29T05:37:55.398Z,14.45
2023-08-29T05:38:55.395Z,14.47
2023-08-29T05:39:55.437Z,14.51
2023-08-29T05:40:55.381Z,14.50
2023-08-29T05:41:56.380Z,14.50
2023-08-29T05:42:55.368Z,14.54
2023-08-29T05:43:55.372Z,14.62
2023-08-29T05:44:55.382Z,14.62
2023-08-29T05:45:56.969Z,14.60
2023-08-29T05:46:56.373Z,14.58
2023-08-29T05:47:55.341Z,14.58
2023-08-29T05:48:55.308Z,14.63
2023-08-29T05:49:55.320Z,14.68
2023-08-29T05:50:55.302Z,14.72
2023-08-29T05:51:55.300Z,14.68
2023-08-29T05:52:55.272Z,14.72
2023-08-29T05:53:55.301Z,14.73
2023-08-29T05:54:55.288Z,14.72
2023-08-29T05:55:55.254Z,14.73
2023-08-29T05:56:55.249Z,14.78
2023-08-29T05:57:55.244Z,14.63
2023-08-29T05:58:55.249Z,14.77
2023-08-29T05:59:55.216Z,14.77
2023-08-29T06:00:55.227Z,14.78
2023-08-29T06:01:55.198Z,14.70
2023-08-29T06:02:55.277Z,14.72
2023-08-29T06:03:55.274Z,14.69
2023-08-29T06:04:55.180Z,14.63
2023-08-29T06:05:55.173Z,14.77
2023-08-29T06:06:55.168Z,14.72
2023-08-29T06:08:08.905Z,14.59
2023-08-29T06:08:57.164Z,14.60
2023-08-29T06:09:55.137Z,14.72
2023-08-29T06:10:55.126Z,14.72
2023-08-29T06:11:55.131Z,14.77
2023-08-29T06:12:55.143Z,14.69
2023-08-29T06:13:55.127Z,14.77
2023-08-29T06:14:55.093Z,14.89
2023-08-29T06:15:55.090Z,14.77
2023-08-29T06:16:55.104Z,14.85
2023-08-29T06:17:55.135Z,14.72
2023-08-29T06:18:55.068Z,14.78
2023-08-29T06:19:55.047Z,14.72
2023-08-29T06:20:55.105Z,14.82
2023-08-29T06:21:55.043Z,14.91
2023-08-29T06:22:55.058Z,14.91
2023-08-29T06:23:55.088Z,14.86
2023-08-29T06:24:55.014Z,14.84
2023-08-29T06:25:55.007Z,14.96
2023-08-29T06:26:54.999Z,14.94
2023-08-29T06:27:55.016Z,14.96
2023-08-29T06:28:54.981Z,14.97
2023-08-29T06:29:54.982Z,15.04
2023-08-29T06:30:55.006Z,15.02
2023-08-29T06:31:54.986Z,15.10
2023-08-29T06:32:55.054Z,15.07
2023-08-29T06:33:54.938Z,15.06
2023-08-29T06:34:54.930Z,15.17
2023-08-29T06:35:54.923Z,15.19
2023-08-29T06:36:54.972Z,15.28
2023-08-29T06:37:54.915Z,15.25
2023-08-29T06:38:54.912Z,15.31
2023-08-29T06:39:54.899Z,15.39
2023-08-29T06:40:54.891Z,15.39
2023-08-29T06:41:54.928Z,15.42
2023-08-29T06:42:54.876Z,15.54
2023-08-29T06:43:54.870Z,15.57
2023-08-29T06:44:54.906Z,15.44
2023-08-29T06:45:54.859Z,15.47
2023-08-29T06:46:54.871Z,15.40
2023-08-29T06:47:54.889Z,15.40
2023-08-29T06:48:54.832Z,15.40
2023-08-29T06:49:54.821Z,15.36
2023-08-29T06:50:54.810Z,15.39
2023-08-29T06:51:54.824Z,15.33
2023-08-29T06:52:54.793Z,15.49
2023-08-29T06:53:54.781Z,15.40
2023-08-29T06:54:54.773Z,15.49
2023-08-29T06:55:54.824Z,15.44
2023-08-29T06:56:54.782Z,15.54
2023-08-29T06:57:54.754Z,15.44
2023-08-29T06:58:54.746Z,15.37
2023-08-29T06:59:54.742Z,15.46
2023-08-29T07:00:54.833Z,15.46
2023-08-29T07:01:54.721Z,15.58
2023-08-29T07:02:54.821Z,15.54
2023-08-29T07:03:54.738Z,15.67
2023-08-29T07:04:54.705Z,15.67
2023-08-29T07:05:54.715Z,15.61
2023-08-29T07:06:54.679Z,15.67
2023-08-29T07:07:55.674Z,15.79
2023-08-29T07:08:54.658Z,15.75
2023-08-29T07:09:54.686Z,15.76
2023-08-29T07:10:54.675Z,15.68
2023-08-29T07:11:54.663Z,15.76
2023-08-29T07:12:54.641Z,15.73
2023-08-29T07:13:54.623Z,15.67
2023-08-29T07:14:54.664Z,15.79
2023-08-29T07:15:54.612Z,15.77
2023-08-29T07:17:56.655Z,15.79
2023-08-29T07:18:54.583Z,15.67
2023-08-29T07:19:54.616Z,15.67
2023-08-29T07:20:54.566Z,15.79
2023-08-29T07:21:54.761Z,15.79
2023-08-29T07:22:54.567Z,15.82
2023-08-29T07:23:54.578Z,15.75
2023-08-29T07:24:54.573Z,15.75
2023-08-29T07:25:54.540Z,15.72
2023-08-29T07:26:54.525Z,15.79
2023-08-29T07:27:54.518Z,15.84
2023-08-29T07:28:54.532Z,15.83
2023-08-29T07:29:54.504Z,15.91
2023-08-29T07:30:54.527Z,15.90
2023-08-29T07:31:54.510Z,16.02
2023-08-29T07:32:54.515Z,15.98
2023-08-29T07:33:54.496Z,16.02
2023-08-29T07:34:54.462Z,15.98
2023-08-29T07:35:54.458Z,16.05
2023-08-29T07:36:54.452Z,16.08
2023-08-29T07:37:54.446Z,16.12
2023-08-29T07:38:54.453Z,16.12
2023-08-29T07:39:54.421Z,16.24
2023-08-29T07:40:54.423Z,16.13
2023-08-29T07:41:54.417Z,16.15
2023-08-29T07:43:26.350Z,16.09
2023-08-29T07:43:54.392Z,16.09
2023-08-29T07:44:54.378Z,16.20
2023-08-29T07:45:54.463Z,16.20
2023-08-29T07:47:08.271Z,16.21
2023-08-29T07:47:56.461Z,16.33
2023-08-29T07:48:54.350Z,16.43
2023-08-29T07:49:54.381Z,16.50
2023-08-29T07:50:54.336Z,16.56
2023-08-29T07:51:54.329Z,16.64
2023-08-29T07:52:54.343Z,16.72
2023-08-29T07:53:54.338Z,16.69
2023-08-29T07:54:54.306Z,16.65
2023-08-29T07:55:54.298Z,16.69
2023-08-29T07:56:55.380Z,16.76
2023-08-29T07:57:54.304Z,16.81
2023-08-29T07:58:55.272Z,16.78
2023-08-29T07:59:54.266Z,16.79
2023-08-29T08:00:54.254Z,16.83
2023-08-29T08:01:54.350Z,16.86
2023-08-29T08:02:54.319Z,16.91
2023-08-29T08:03:54.262Z,17.05
2023-08-29T08:04:54.224Z,17.09
2023-08-29T08:05:54.218Z,17.20
2023-08-29T08:06:54.266Z,17.23
2023-08-29T08:07:54.199Z,17.24
2023-08-29T08:08:54.195Z,17.29
2023-08-29T08:09:54.186Z,17.26
2023-08-29T08:10:54.174Z,17.27
2023-08-29T08:11:54.207Z,17.33
2023-08-29T08:12:54.157Z,17.36
2023-08-29T08:13:54.157Z,17.38
2023-08-29T08:14:54.146Z,17.45
2023-08-29T08:15:54.197Z,17.46
2023-08-29T08:16:54.189Z,17.41
2023-08-29T08:17:54.154Z,17.41
2023-08-29T08:18:54.127Z,17.45
2023-08-29T08:19:54.109Z,17.42
2023-08-29T08:20:54.130Z,17.44
2023-08-29T08:21:54.094Z,17.44
2023-08-29T08:22:54.092Z,17.31
2023-08-29T08:23:54.078Z,17.31
2023-08-29T08:24:54.078Z,17.33
2023-08-29T08:25:54.092Z,17.33
2023-08-29T08:26:54.060Z,17.30
2023-08-29T08:27:54.049Z,17.29
2023-08-29T08:28:54.038Z,17.30
2023-08-29T08:29:54.034Z,17.42
2023-08-29T08:30:54.045Z,17.44
2023-08-29T08:31:54.014Z,17.44
2023-08-29T08:32:54.003Z,17.46
2023-08-29T08:33:54.005Z,17.44
2023-08-29T08:34:54.018Z,17.44
2023-08-29T08:35:57.491Z,17.42
2023-08-29T08:36:54.973Z,17.49
2023-08-29T08:37:53.971Z,17.57
2023-08-29T08:38:53.955Z,17.76
2023-08-29T08:39:53.980Z,17.70
2023-08-29T08:40:53.943Z,17.97
2023-08-29T08:41:54.009Z,18.20
2023-08-29T08:42:53.926Z,18.52
2023-08-29T08:43:53.964Z,18.81
2023-08-29T08:44:54.000Z,18.98
2023-08-29T08:45:53.929Z,19.31
2023-08-29T08:46:53.892Z,19.48
2023-08-29T08:47:53.921Z,19.89
2023-08-29T08:48:53.878Z,20.09
2023-08-29T08:49:53.899Z,20.04
2023-08-29T08:50:53.858Z,20.19
2023-08-29T08:51:53.857Z,20.26
2023-08-29T08:52:53.856Z,20.40
2023-08-29T08:53:53.837Z,20.50
2023-08-29T08:54:53.863Z,20.56
2023-08-29T08:55:53.821Z,20.80
2023-08-29T08:56:53.830Z,20.80
2023-08-29T08:57:53.805Z,20.80
2023-08-29T08:58:53.828Z,20.85
2023-08-29T08:59:53.792Z,21.20
2023-08-29T09:00:53.791Z,21.57
2023-08-29T09:01:53.801Z,21.80
2023-08-29T09:02:53.861Z,21.77
2023-08-29T09:03:53.818Z,21.66
2023-08-29T09:04:53.752Z,21.24
2023-08-29T09:05:53.749Z,20.85
2023-08-29T09:06:53.739Z,20.81
2023-08-29T09:07:53.762Z,21.12
2023-08-29T09:08:53.741Z,21.70
2023-08-29T09:09:53.713Z,21.67
2023-08-29T09:10:53.721Z,22.13
2023-08-29T09:11:53.717Z,21.99
2023-08-29T09:12:53.755Z,21.85
2023-08-29T09:13:53.681Z,21.83
2023-08-29T09:14:53.671Z,22.14
2023-08-29T09:15:53.770Z,21.82
2023-08-29T09:16:53.685Z,21.72
2023-08-29T09:17:53.701Z,21.91
2023-08-29T09:18:53.638Z,22.04
2023-08-29T09:19:53.696Z,22.39
2023-08-29T09:20:53.635Z,22.43
2023-08-29T09:21:53.657Z,22.81
2023-08-29T09:22:53.657Z,23.06
2023-08-29T09:23:53.659Z,23.09
2023-08-29T09:24:53.680Z,23.25
2023-08-29T09:25:53.617Z,23.32
2023-08-29T09:26:53.648Z,23.36
2023-08-29T09:27:53.587Z,23.24
2023-08-29T09:28:53.601Z,23.25
2023-08-29T09:29:53.563Z,23.05
2023-08-29T09:30:53.562Z,22.63
2023-08-29T09:31:53.599Z,22.13
2023-08-29T09:32:53.588Z,21.91
2023-08-29T09:33:53.557Z,21.77
2023-08-29T09:34:53.554Z,21.99
2023-08-29T09:35:53.513Z,21.96
2023-08-29T09:36:53.536Z,22.44
2023-08-29T09:37:53.690Z,22.65
2023-08-29T09:38:53.531Z,22.45
2023-08-29T09:39:53.509Z,22.14
2023-08-29T09:40:53.529Z,21.95
2023-08-29T09:41:53.507Z,21.66
2023-08-29T09:42:53.484Z,21.69
2023-08-29T09:43:53.455Z,21.79
2023-08-29T09:44:53.477Z,21.80
2023-08-29T09:45:53.674Z,21.83
2023-08-29T09:46:53.472Z,21.66
2023-08-29T09:47:53.477Z,21.22
2023-08-29T09:48:53.412Z,20.95
2023-08-29T09:49:53.403Z,21.09
2023-08-29T09:50:53.445Z,20.95
2023-08-29T09:51:53.470Z,20.41
2023-08-29T09:52:53.393Z,20.36
2023-08-29T09:53:53.436Z,20.19
2023-08-29T09:54:53.400Z,20.21
2023-08-29T09:55:53.411Z,20.39
2023-08-29T09:56:53.364Z,20.63
2023-08-29T09:57:53.403Z,20.87
2023-08-29T09:58:53.343Z,21.03
2023-08-29T09:59:53.343Z,21.15
2023-08-29T10:00:53.422Z,21.25
2023-08-29T10:01:53.319Z,21.12
2023-08-29T10:02:53.358Z,20.51
2023-08-29T10:03:53.305Z,20.40
2023-08-29T10:04:53.342Z,20.31
2023-08-29T10:05:53.339Z,20.24
2023-08-29T10:06:53.280Z,20.34
2023-08-29T10:07:53.268Z,20.29
2023-08-29T10:08:53.261Z,20.00
2023-08-29T10:09:53.274Z,19.92
2023-08-29T10:10:53.247Z,19.96
2023-08-29T10:11:55.335Z,20.06
2023-08-29T10:12:54.231Z,20.21
2023-08-29T10:13:53.259Z,20.41
2023-08-29T10:14:53.247Z,20.56
2023-08-29T10:15:53.289Z,20.80
2023-08-29T10:16:53.341Z,20.62
2023-08-29T10:17:53.260Z,20.66
2023-08-29T10:18:53.188Z,20.56
2023-08-29T10:19:53.214Z,20.40
2023-08-29T10:20:53.172Z,20.39
2023-08-29T10:21:53.165Z,20.58
2023-08-29T10:22:53.157Z,20.55
2023-08-29T10:23:53.175Z,20.56
2023-08-29T10:24:53.167Z,20.63
2023-08-29T10:25:53.134Z,20.51
2023-08-29T10:26:53.128Z,20.43
2023-08-29T10:27:53.122Z,20.19
2023-08-29T10:28:53.146Z,20.02
2023-08-29T10:29:53.102Z,19.77
2023-08-29T10:30:53.208Z,19.55
2023-08-29T10:31:53.087Z,19.39
2023-08-29T10:32:53.154Z,19.26
2023-08-29T10:33:53.091Z,19.40
2023-08-29T10:34:53.063Z,19.40
2023-08-29T10:35:53.062Z,19.41
2023-08-29T10:36:53.079Z,19.54
2023-08-29T10:37:53.086Z,19.70
2023-08-29T10:38:53.057Z,19.84
2023-08-29T10:39:53.037Z,19.92
2023-08-29T10:40:53.023Z,20.07
2023-08-29T10:41:53.019Z,20.06
2023-08-29T10:42:53.083Z,19.95
2023-08-29T10:43:52.994Z,19.79
2023-08-29T10:44:52.984Z,19.62
2023-08-29T10:45:53.983Z,19.52
2023-08-29T10:46:53.025Z,19.56
2023-08-29T10:47:53.011Z,19.64
2023-08-29T10:48:52.972Z,19.85
2023-08-29T10:49:52.942Z,19.86
2023-08-29T10:50:52.937Z,19.71
2023-08-29T10:51:52.927Z,19.69
2023-08-29T10:52:52.945Z,19.58
2023-08-29T10:53:53.003Z,19.66
2023-08-29T10:54:52.906Z,19.73
2023-08-29T10:55:52.914Z,19.86
2023-08-29T10:56:52.950Z,19.99
2023-08-29T10:57:52.967Z,20.06
2023-08-29T10:58:52.878Z,20.03
2023-08-29T10:59:52.865Z,20.11
2023-08-29T11:00:52.904Z,20.02
2023-08-29T11:01:52.902Z,19.91
2023-08-29T11:02:52.869Z,20.03
2023-08-29T11:03:52.981Z,20.28
2023-08-29T11:04:56.460Z,20.31
2023-08-29T11:05:53.871Z,20.37
2023-08-29T11:06:52.839Z,20.55
2023-08-29T11:07:52.805Z,20.74
2023-08-29T11:08:52.837Z,20.70
2023-08-29T11:09:52.789Z,20.75
2023-08-29T11:10:52.807Z,20.74
2023-08-29T11:11:52.801Z,20.75
2023-08-29T11:12:52.766Z,20.62
2023-08-29T11:13:52.753Z,20.48
2023-08-29T11:14:52.867Z,20.34
2023-08-29T11:15:52.767Z,20.21
2023-08-29T11:16:52.783Z,20.21
2023-08-29T11:17:52.738Z,20.00
2023-08-29T11:18:52.721Z,19.88
2023-08-29T11:19:52.714Z,19.71
2023-08-29T11:20:52.730Z,19.76
2023-08-29T11:21:52.692Z,19.85
2023-08-29T11:22:52.688Z,19.58
2023-08-29T11:24:05.564Z,19.66
2023-08-29T11:24:54.668Z,19.39
2023-08-29T11:25:52.692Z,19.37
2023-08-29T11:26:52.678Z,19.26
2023-08-29T11:27:52.645Z,19.34
2023-08-29T11:28:52.639Z,19.37
2023-08-29T11:29:58.276Z,19.34
2023-08-29T11:30:54.668Z,19.37
2023-08-29T11:31:52.613Z,19.19
2023-08-29T11:32:53.010Z,19.07
2023-08-29T11:33:52.602Z,19.08
2023-08-29T11:34:52.590Z,19.11
2023-08-29T11:35:52.603Z,19.12
2023-08-29T11:36:52.875Z,19.07
2023-08-29T11:37:52.577Z,19.11
2023-08-29T11:38:52.939Z,19.18
2023-08-29T11:39:53.585Z,19.19
2023-08-29T11:41:06.610Z,19.40
2023-08-29T11:42:20.009Z,19.54
2023-08-29T11:43:43.705Z,19.71
2023-08-29T11:44:30.897Z,19.81
2023-08-29T11:45:45.601Z,20.02
2023-08-29T11:45:57.632Z,20.31
2023-08-29T11:46:54.543Z,20.48
2023-08-29T11:47:53.552Z,20.58
2023-08-29T11:48:52.496Z,20.80
2023-08-29T11:49:52.498Z,21.12
2023-08-29T11:50:52.472Z,21.39
2023-08-29T11:51:52.466Z,21.76
2023-08-29T11:52:52.445Z,21.89
2023-08-29T11:53:52.465Z,21.80
2023-08-29T11:54:52.455Z,22.02
2023-08-29T11:55:52.422Z,22.11
2023-08-29T11:56:52.419Z,22.02
2023-08-29T11:57:52.410Z,22.06
2023-08-29T11:58:52.429Z,22.02
2023-08-29T11:59:52.430Z,21.98
2023-08-29T12:00:52.387Z,21.98
2023-08-29T12:01:52.395Z,21.88
2023-08-29T12:02:52.481Z,21.80
2023-08-29T12:03:52.425Z,21.82
2023-08-29T12:04:52.374Z,21.80
2023-08-29T12:05:52.351Z,21.85
2023-08-29T12:06:52.355Z,21.76
2023-08-29T12:07:52.354Z,21.48
2023-08-29T12:08:52.345Z,21.39
2023-08-29T12:09:52.313Z,21.27
2023-08-29T12:10:52.305Z,21.07
2023-08-29T12:11:52.301Z,21.15
2023-08-29T12:12:52.293Z,20.99
2023-08-29T12:13:52.316Z,20.77
2023-08-29T12:14:52.278Z,20.82
2023-08-29T12:15:52.263Z,20.70
2023-08-29T12:16:52.255Z,20.75
2023-08-29T12:17:52.282Z,20.77
2023-08-29T12:18:52.283Z,20.74
2023-08-29T12:19:52.237Z,20.77
2023-08-29T12:20:52.234Z,20.75
2023-08-29T12:21:52.219Z,20.69
2023-08-29T12:22:52.237Z,20.62
2023-08-29T12:23:52.240Z,20.74
2023-08-29T12:24:52.199Z,20.60
2023-08-29T12:25:52.192Z,20.50
2023-08-29T12:26:52.181Z,20.39
2023-08-29T12:27:52.198Z,20.31
2023-08-29T12:28:52.161Z,20.16
2023-08-29T12:29:52.165Z,20.22
2023-08-29T12:30:52.190Z,20.19
2023-08-29T12:31:52.143Z,20.10
2023-08-29T12:32:52.203Z,20.14
2023-08-29T12:33:52.127Z,20.06
2023-08-29T12:34:52.120Z,20.06
2023-08-29T12:35:52.101Z,20.00
2023-08-29T12:36:53.146Z,20.03
2023-08-29T12:37:52.124Z,20.02
2023-08-29T12:38:52.091Z,19.99
2023-08-29T12:39:52.083Z,20.02
2023-08-29T12:40:52.067Z,19.91
2023-08-29T12:41:52.114Z,19.91
2023-08-29T12:42:52.089Z,19.81
2023-08-29T12:43:52.045Z,19.79
2023-08-29T12:44:52.093Z,19.88
2023-08-29T12:45:59.105Z,20.10
2023-08-29T12:46:54.049Z,20.18
2023-08-29T12:47:52.158Z,20.34
2023-08-29T12:48:52.016Z,20.48
2023-08-29T12:49:52.005Z,20.60
2023-08-29T12:50:52.004Z,20.85
2023-08-29T12:51:52.022Z,20.88
2023-08-29T12:52:51.990Z,21.11
2023-08-29T12:53:51.977Z,21.18